sensor_id;sensor_type;location;lat;lon;timestamp;pressure;altitude;pressure_sealevel;temperature;humidity
66486;BME280;53303;47.476;8.084;2024-01-27T00:00:05;96884.72;;;19.98;44.24
66486;BME280;53303;47.476;8.084;2024-01-27T00:02:30;96891.53;;;19.97;44.47
66486;BME280;53303;47.476;8.084;2024-01-27T00:04:56;96882.63;;;19.93;44.31
66486;BME280;53303;47.476;8.084;2024-01-27T00:07:21;96880.63;;;19.93;44.49
66486;BME280;53303;47.476;8.084;2024-01-27T00:09:47;96898.59;;;19.98;44.48
66486;BME280;53303;47.476;8.084;2024-01-27T00:12:12;96887.28;;;19.87;44.57
66486;BME280;53303;47.476;8.084;2024-01-27T00:14:38;96900.59;;;19.97;44.56
66486;BME280;53303;47.476;8.084;2024-01-27T00:17:04;96895.25;;;19.94;44.46
66486;BME280;53303;47.476;8.084;2024-01-27T00:19:29;96893.72;;;19.93;44.43
66486;BME280;53303;47.476;8.084;2024-01-27T00:21:55;96903.06;;;19.95;44.30
66486;BME280;53303;47.476;8.084;2024-01-27T00:24:23;96897.84;;;19.97;44.38
66486;BME280;53303;47.476;8.084;2024-01-27T00:26:49;96892.28;;;19.97;44.36
66486;BME280;53303;47.476;8.084;2024-01-27T00:29:17;96899.84;;;19.97;44.39
66486;BME280;53303;47.476;8.084;2024-01-27T00:31:43;96894.31;;;19.97;44.49
66486;BME280;53303;47.476;8.084;2024-01-27T00:34:08;96888.75;;;19.97;44.31
66486;BME280;53303;47.476;8.084;2024-01-27T00:36:33;96901.34;;;19.98;44.48
66486;BME280;53303;47.476;8.084;2024-01-27T00:39:02;96903.06;;;19.95;44.44
66486;BME280;53303;47.476;8.084;2024-01-27T00:41:28;96911.09;;;19.93;44.23
66486;BME280;53303;47.476;8.084;2024-01-27T00:43:53;96908.16;;;19.97;44.41
66486;BME280;53303;47.476;8.084;2024-01-27T00:46:19;96905.09;;;19.95;44.59
66486;BME280;53303;47.476;8.084;2024-01-27T00:48:47;96898.66;;;19.89;44.33
66486;BME280;53303;47.476;8.084;2024-01-27T00:51:13;96914.44;;;19.97;44.42
66486;BME280;53303;47.476;8.084;2024-01-27T00:53:38;96906.03;;;19.92;44.32
66486;BME280;53303;47.476;8.084;2024-01-27T00:56:07;96899.72;;;19.91;44.28
66486;BME280;53303;47.476;8.084;2024-01-27T00:58:32;96902.78;;;19.93;44.37
66486;BME280;53303;47.476;8.084;2024-01-27T01:00:57;96903.72;;;19.90;44.29
66486;BME280;53303;47.476;8.084;2024-01-27T01:03:23;96905.38;;;19.97;44.31
66486;BME280;53303;47.476;8.084;2024-01-27T01:05:51;96912.94;;;19.96;44.36
66486;BME280;53303;47.476;8.084;2024-01-27T01:08:16;96910.63;;;19.95;44.27
66486;BME280;53303;47.476;8.084;2024-01-27T01:10:42;96919.25;;;19.97;44.36
66486;BME280;53303;47.476;8.084;2024-01-27T01:13:07;96913.56;;;19.91;44.41
66486;BME280;53303;47.476;8.084;2024-01-27T01:15:33;96917.09;;;19.92;44.24
66486;BME280;53303;47.476;8.084;2024-01-27T01:17:58;96920.16;;;19.94;44.34
66486;BME280;53303;47.476;8.084;2024-01-27T01:20:24;96916.94;;;19.95;44.14
66486;BME280;53303;47.476;8.084;2024-01-27T01:22:53;96915.88;;;19.93;44.37
66486;BME280;53303;47.476;8.084;2024-01-27T01:25:18;96925.72;;;19.94;44.33
66486;BME280;53303;47.476;8.084;2024-01-27T01:27:46;96929.06;;;19.98;44.06
66486;BME280;53303;47.476;8.084;2024-01-27T01:30:12;96917.56;;;19.90;44.26
66486;BME280;53303;47.476;8.084;2024-01-27T01:32:37;96929.56;;;19.96;44.15
66486;BME280;53303;47.476;8.084;2024-01-27T01:35:03;96919.69;;;19.95;44.24
66486;BME280;53303;47.476;8.084;2024-01-27T01:37:29;96921.72;;;19.95;44.13
66486;BME280;53303;47.476;8.084;2024-01-27T01:39:54;96925.53;;;19.97;44.18
66486;BME280;53303;47.476;8.084;2024-01-27T01:42:19;96918.16;;;19.94;44.10
66486;BME280;53303;47.476;8.084;2024-01-27T01:44:48;96923.69;;;19.94;44.17
66486;BME280;53303;47.476;8.084;2024-01-27T01:47:13;96933.84;;;19.97;44.12
66486;BME280;53303;47.476;8.084;2024-01-27T01:49:41;96914.03;;;19.90;44.12
66486;BME280;53303;47.476;8.084;2024-01-27T01:52:07;96913.28;;;19.89;44.09
66486;BME280;53303;47.476;8.084;2024-01-27T01:54:35;96906.50;;;19.90;44.22
66486;BME280;53303;47.476;8.084;2024-01-27T01:57:03;96926.00;;;19.96;44.33
66486;BME280;53303;47.476;8.084;2024-01-27T01:59:29;96916.81;;;19.90;44.21
66486;BME280;53303;47.476;8.084;2024-01-27T02:01:54;96882.88;;;19.71;44.36
66486;BME280;53303;47.476;8.084;2024-01-27T02:04:19;96921.41;;;19.93;44.14
66486;BME280;53303;47.476;8.084;2024-01-27T02:06:45;96936.63;;;19.97;44.34
66486;BME280;53303;47.476;8.084;2024-01-27T02:09:10;96938.03;;;19.93;44.17
66486;BME280;53303;47.476;8.084;2024-01-27T02:11:36;96942.16;;;19.97;44.24
66486;BME280;53303;47.476;8.084;2024-01-27T02:14:02;96941.41;;;19.97;44.19
66486;BME280;53303;47.476;8.084;2024-01-27T02:16:27;96947.41;;;19.95;44.11
66486;BME280;53303;47.476;8.084;2024-01-27T02:18:52;96948.16;;;19.96;43.94
66486;BME280;53303;47.476;8.084;2024-01-27T02:21:18;96946.34;;;19.93;44.05
66486;BME280;53303;47.476;8.084;2024-01-27T02:23:43;96954.97;;;19.95;44.26
66486;BME280;53303;47.476;8.084;2024-01-27T02:26:09;96947.88;;;19.94;44.11
66486;BME280;53303;47.476;8.084;2024-01-27T02:28:34;96950.34;;;19.92;44.44
66486;BME280;53303;47.476;8.084;2024-01-27T02:31:00;96945.56;;;19.92;44.25
66486;BME280;53303;47.476;8.084;2024-01-27T02:33:26;96947.59;;;19.92;44.19
66486;BME280;53303;47.476;8.084;2024-01-27T02:35:54;96954.50;;;19.96;44.03
66486;BME280;53303;47.476;8.084;2024-01-27T02:38:19;96953.88;;;19.92;44.18
66486;BME280;53303;47.476;8.084;2024-01-27T02:40:44;96956.00;;;19.97;44.09
66486;BME280;53303;47.476;8.084;2024-01-27T02:43:15;96951.41;;;19.94;44.11
66486;BME280;53303;47.476;8.084;2024-01-27T02:45:40;96956.19;;;19.94;44.30
66486;BME280;53303;47.476;8.084;2024-01-27T02:48:06;96957.13;;;19.91;44.22
66486;BME280;53303;47.476;8.084;2024-01-27T02:50:31;96963.28;;;19.95;44.13
66486;BME280;53303;47.476;8.084;2024-01-27T02:52:59;96954.16;;;19.94;44.14
66486;BME280;53303;47.476;8.084;2024-01-27T02:55:25;96964.03;;;19.95;44.06
66486;BME280;53303;47.476;8.084;2024-01-27T02:57:50;96960.78;;;19.97;44.15
66486;BME280;53303;47.476;8.084;2024-01-27T03:00:16;96954.34;;;19.91;44.13
66486;BME280;53303;47.476;8.084;2024-01-27T03:02:45;96960.50;;;19.95;43.97
66486;BME280;53303;47.476;8.084;2024-01-27T03:05:10;96959.25;;;19.96;44.06
66486;BME280;53303;47.476;8.084;2024-01-27T03:07:39;96961.56;;;19.97;44.03
66486;BME280;53303;47.476;8.084;2024-01-27T03:10:05;96962.81;;;19.96;44.03
66486;BME280;53303;47.476;8.084;2024-01-27T03:12:30;96950.53;;;19.88;43.89
66486;BME280;53303;47.476;8.084;2024-01-27T03:14:58;96958.03;;;19.97;43.98
66486;BME280;53303;47.476;8.084;2024-01-27T03:17:23;96966.34;;;19.97;43.95
66486;BME280;53303;47.476;8.084;2024-01-27T03:19:52;96954.66;;;19.93;44.05
66486;BME280;53303;47.476;8.084;2024-01-27T03:22:20;96958.50;;;19.95;44.14
66486;BME280;53303;47.476;8.084;2024-01-27T03:24:45;96950.34;;;19.92;44.05
66486;BME280;53303;47.476;8.084;2024-01-27T03:27:10;96963.28;;;19.95;44.12
66486;BME280;53303;47.476;8.084;2024-01-27T03:29:36;96970.34;;;19.96;43.79
66486;BME280;53303;47.476;8.084;2024-01-27T03:32:01;96962.03;;;19.96;43.91
66486;BME280;53303;47.476;8.084;2024-01-27T03:34:27;96962.81;;;19.96;44.06
66486;BME280;53303;47.476;8.084;2024-01-27T03:36:53;96970.34;;;19.96;44.10
66486;BME280;53303;47.476;8.084;2024-01-27T03:39:18;96958.25;;;19.84;43.96
66486;BME280;53303;47.476;8.084;2024-01-27T03:41:48;96971.88;;;19.97;44.23
66486;BME280;53303;47.476;8.084;2024-01-27T03:44:14;96981.59;;;19.92;43.96
66486;BME280;53303;47.476;8.084;2024-01-27T03:46:39;96976.03;;;19.92;43.83
66486;BME280;53303;47.476;8.084;2024-01-27T03:49:07;96967.91;;;19.89;44.18
66486;BME280;53303;47.476;8.084;2024-01-27T03:51:34;96981.41;;;19.96;43.98
66486;BME280;53303;47.476;8.084;2024-01-27T03:54:00;96976.66;;;19.96;44.04
66486;BME280;53303;47.476;8.084;2024-01-27T03:56:25;96963.31;;;19.86;43.85
66486;BME280;53303;47.476;8.084;2024-01-27T03:58:51;96972.22;;;19.90;44.01
66486;BME280;53303;47.476;8.084;2024-01-27T04:01:16;96980.34;;;19.93;43.95
66486;BME280;53303;47.476;8.084;2024-01-27T04:03:44;96973.75;;;19.91;44.09
66486;BME280;53303;47.476;8.084;2024-01-27T04:06:12;96987.41;;;19.94;43.80
66486;BME280;53303;47.476;8.084;2024-01-27T04:08:40;96987.28;;;19.89;44.01
66486;BME280;53303;47.476;8.084;2024-01-27T04:11:09;96989.44;;;19.94;43.94
66486;BME280;53303;47.476;8.084;2024-01-27T04:13:35;96983.00;;;19.88;43.88
66486;BME280;53303;47.476;8.084;2024-01-27T04:16:01;96985.78;;;19.88;43.64
66486;BME280;53303;47.476;8.084;2024-01-27T04:18:26;96993.13;;;19.91;43.96
66486;BME280;53303;47.476;8.084;2024-01-27T04:20:52;97003.00;;;19.92;43.81
66486;BME280;53303;47.476;8.084;2024-01-27T04:23:17;96998.22;;;19.92;43.70
66486;BME280;53303;47.476;8.084;2024-01-27T04:25:43;96996.22;;;19.93;43.87
66486;BME280;53303;47.476;8.084;2024-01-27T04:28:09;96990.34;;;19.91;44.05
66486;BME280;53303;47.476;8.084;2024-01-27T04:30:37;96984.69;;;19.85;43.92
66486;BME280;53303;47.476;8.084;2024-01-27T04:33:02;96982.72;;;19.86;43.70
66486;BME280;53303;47.476;8.084;2024-01-27T04:35:27;96992.38;;;19.90;43.83
66486;BME280;53303;47.476;8.084;2024-01-27T04:37:53;97011.13;;;19.95;43.83
66486;BME280;53303;47.476;8.084;2024-01-27T04:40:18;97014.06;;;19.92;43.89
66486;BME280;53303;47.476;8.084;2024-01-27T04:42:44;97005.16;;;19.88;43.95
66486;BME280;53303;47.476;8.084;2024-01-27T04:45:09;97005.75;;;19.92;44.04
66486;BME280;53303;47.476;8.084;2024-01-27T04:47:35;97012.84;;;19.93;43.86
66486;BME280;53303;47.476;8.084;2024-01-27T04:50:02;97016.66;;;19.95;43.87
66486;BME280;53303;47.476;8.084;2024-01-27T04:52:31;97010.25;;;19.89;43.72
66486;BME280;53303;47.476;8.084;2024-01-27T04:55:01;97021.44;;;19.95;43.77
66486;BME280;53303;47.476;8.084;2024-01-27T04:57:29;97019.16;;;19.93;43.80
66486;BME280;53303;47.476;8.084;2024-01-27T04:59:54;97015.63;;;19.93;43.91
66486;BME280;53303;47.476;8.084;2024-01-27T05:02:20;97023.59;;;19.91;43.86
66486;BME280;53303;47.476;8.084;2024-01-27T05:04:45;97030.97;;;19.94;43.89
66486;BME280;53303;47.476;8.084;2024-01-27T05:07:10;97030.97;;;19.94;43.75
66486;BME280;53303;47.476;8.084;2024-01-27T05:09:36;97001.78;;;19.84;43.87
66486;BME280;53303;47.476;8.084;2024-01-27T05:12:01;97009.75;;;19.91;43.68
66486;BME280;53303;47.476;8.084;2024-01-27T05:14:27;97000.97;;;19.92;43.75
66486;BME280;53303;47.476;8.084;2024-01-27T05:16:53;96992.84;;;19.89;43.76
66486;BME280;53303;47.476;8.084;2024-01-27T05:19:18;97010.84;;;19.93;43.79
66486;BME280;53303;47.476;8.084;2024-01-27T05:21:44;97007.47;;;19.89;43.74
66486;BME280;53303;47.476;8.084;2024-01-27T05:24:11;97018.38;;;19.93;43.81
66486;BME280;53303;47.476;8.084;2024-01-27T05:26:37;97008.41;;;19.86;43.75
66486;BME280;53303;47.476;8.084;2024-01-27T05:29:02;97002.41;;;19.88;43.69
66486;BME280;53303;47.476;8.084;2024-01-27T05:31:28;96996.41;;;19.80;43.56
66486;BME280;53303;47.476;8.084;2024-01-27T05:33:53;97011.00;;;19.90;44.01
66486;BME280;53303;47.476;8.084;2024-01-27T05:36:18;97003.16;;;19.88;43.67
66486;BME280;53303;47.476;8.084;2024-01-27T05:38:47;96999.63;;;19.88;43.60
66486;BME280;53303;47.476;8.084;2024-01-27T05:41:12;97005.47;;;19.90;43.70
66486;BME280;53303;47.476;8.084;2024-01-27T05:43:37;97003.91;;;19.89;43.78
66486;BME280;53303;47.476;8.084;2024-01-27T05:46:05;97003.16;;;19.88;43.77
66486;BME280;53303;47.476;8.084;2024-01-27T05:48:30;97009.91;;;19.87;43.71
66486;BME280;53303;47.476;8.084;2024-01-27T05:51:00;97034.22;;;19.92;43.69
66486;BME280;53303;47.476;8.084;2024-01-27T05:53:26;97023.94;;;19.93;43.75
66486;BME280;53303;47.476;8.084;2024-01-27T05:55:55;97019.31;;;19.90;43.74
66486;BME280;53303;47.476;8.084;2024-01-27T05:58:20;97019.31;;;19.90;43.62
66486;BME280;53303;47.476;8.084;2024-01-27T06:00:47;97020.38;;;19.92;43.66
66486;BME280;53303;47.476;8.084;2024-01-27T06:03:13;97019.78;;;19.88;43.62
66486;BME280;53303;47.476;8.084;2024-01-27T06:05:39;97017.00;;;19.88;43.77
66486;BME280;53303;47.476;8.084;2024-01-27T06:08:08;97014.06;;;19.92;43.70
66486;BME280;53303;47.476;8.084;2024-01-27T06:10:33;97008.41;;;19.86;43.67
66486;BME280;53303;47.476;8.084;2024-01-27T06:12:59;97017.31;;;19.90;43.56
66486;BME280;53303;47.476;8.084;2024-01-27T06:15:24;96999.34;;;19.86;43.60
66486;BME280;53303;47.476;8.084;2024-01-27T06:17:50;97003.91;;;19.89;43.54
66486;BME280;53303;47.476;8.084;2024-01-27T06:20:15;97002.69;;;19.90;43.70
66486;BME280;53303;47.476;8.084;2024-01-27T06:22:44;97008.22;;;19.90;43.59
66486;BME280;53303;47.476;8.084;2024-01-27T06:25:09;97007.94;;;19.88;43.68
66486;BME280;53303;47.476;8.084;2024-01-27T06:27:36;97013.31;;;19.91;43.77
66486;BME280;53303;47.476;8.084;2024-01-27T06:30:01;97002.41;;;19.88;43.62
66486;BME280;53303;47.476;8.084;2024-01-27T06:32:27;97000.25;;;19.83;43.78
66486;BME280;53303;47.476;8.084;2024-01-27T06:34:52;97009.75;;;19.91;43.66
66486;BME280;53303;47.476;8.084;2024-01-27T06:37:17;97012.84;;;19.84;43.73
66486;BME280;53303;47.476;8.084;2024-01-27T06:39:43;97004.25;;;19.82;43.69
66486;BME280;53303;47.476;8.084;2024-01-27T06:42:11;97008.09;;;19.84;43.47
66486;BME280;53303;47.476;8.084;2024-01-27T06:44:36;97025.31;;;19.88;43.56
66486;BME280;53303;47.476;8.084;2024-01-27T06:47:01;97022.25;;;19.86;43.71
66486;BME280;53303;47.476;8.084;2024-01-27T06:49:29;97031.63;;;19.89;43.78
66486;BME280;53303;47.476;8.084;2024-01-27T06:51:57;97021.00;;;19.87;43.62
66486;BME280;53303;47.476;8.084;2024-01-27T06:54:22;97022.84;;;19.90;43.65
66486;BME280;53303;47.476;8.084;2024-01-27T06:56:47;97009.91;;;19.87;43.83
66486;BME280;53303;47.476;8.084;2024-01-27T06:59:15;97013.19;;;19.86;43.57
66486;BME280;53303;47.476;8.084;2024-01-27T07:01:48;97001.94;;;19.80;43.57
66486;BME280;53303;47.476;8.084;2024-01-27T07:04:14;97009.31;;;19.83;43.32
66486;BME280;53303;47.476;8.084;2024-01-27T07:06:40;97013.00;;;19.89;43.61
66486;BME280;53303;47.476;8.084;2024-01-27T07:09:07;97006.38;;;19.87;43.65
66486;BME280;53303;47.476;8.084;2024-01-27T07:11:34;97004.53;;;19.84;43.43
66486;BME280;53303;47.476;8.084;2024-01-27T07:14:00;96984.16;;;19.63;43.47
66486;BME280;53303;47.476;8.084;2024-01-27T07:16:25;97020.41;;;19.83;43.61
66486;BME280;53303;47.476;8.084;2024-01-27T07:18:51;97021.97;;;19.84;43.40
66486;BME280;53303;47.476;8.084;2024-01-27T07:21:18;97009.97;;;19.78;43.54
66486;BME280;53303;47.476;8.084;2024-01-27T07:23:44;97027.97;;;19.83;43.56
66486;BME280;53303;47.476;8.084;2024-01-27T07:26:10;97033.63;;;19.88;43.00
66486;BME280;53303;47.476;8.084;2024-01-27T07:28:36;97028.88;;;19.80;42.84
66486;BME280;53303;47.476;8.084;2024-01-27T07:31:01;97038.56;;;19.84;42.48
66486;BME280;53303;47.476;8.084;2024-01-27T07:33:27;97035.50;;;19.82;42.24
66486;BME280;53303;47.476;8.084;2024-01-27T07:35:52;97014.44;;;19.75;40.87
66486;BME280;53303;47.476;8.084;2024-01-27T07:38:18;97021.03;;;19.78;40.70
66486;BME280;53303;47.476;8.084;2024-01-27T07:40:43;97021.81;;;19.78;40.05
66486;BME280;53303;47.476;8.084;2024-01-27T07:43:09;97023.97;;;19.74;39.32
66486;BME280;53303;47.476;8.084;2024-01-27T07:45:36;97015.22;;;19.67;39.20
66486;BME280;53303;47.476;8.084;2024-01-27T07:48:04;97041.03;;;19.73;39.23
66486;BME280;53303;47.476;8.084;2024-01-27T07:50:30;97040.91;;;19.67;39.30
66486;BME280;53303;47.476;8.084;2024-01-27T07:52:58;97036.75;;;19.72;39.37
66486;BME280;53303;47.476;8.084;2024-01-27T07:55:24;97038.41;;;19.69;39.35
66486;BME280;53303;47.476;8.084;2024-01-27T07:57:49;97038.41;;;19.69;39.25
66486;BME280;53303;47.476;8.084;2024-01-27T08:00:18;97033.03;;;19.66;39.74
66486;BME280;53303;47.476;8.084;2024-01-27T08:02:43;97030.13;;;19.69;39.63
66486;BME280;53303;47.476;8.084;2024-01-27T08:05:09;97024.56;;;19.69;39.57
66486;BME280;53303;47.476;8.084;2024-01-27T08:07:39;97015.22;;;19.67;39.80
66486;BME280;53303;47.476;8.084;2024-01-27T08:10:05;97022.59;;;19.70;39.83
66486;BME280;53303;47.476;8.084;2024-01-27T08:12:33;97007.06;;;19.63;39.79
66486;BME280;53303;47.476;8.084;2024-01-27T08:15:01;97005.34;;;19.66;39.80
66486;BME280;53303;47.476;8.084;2024-01-27T08:17:26;97012.44;;;19.67;39.91
66486;BME280;53303;47.476;8.084;2024-01-27T08:19:51;97009.97;;;19.69;40.05
66486;BME280;53303;47.476;8.084;2024-01-27T08:22:17;97005.81;;;19.64;40.06
66486;BME280;53303;47.476;8.084;2024-01-27T08:24:42;97014.28;;;19.70;40.17
66486;BME280;53303;47.476;8.084;2024-01-27T08:27:10;97019.03;;;19.69;40.10
66486;BME280;53303;47.476;8.084;2024-01-27T08:29:36;97015.03;;;19.70;40.23
66486;BME280;53303;47.476;8.084;2024-01-27T08:32:01;97001.22;;;19.61;40.17
66486;BME280;53303;47.476;8.084;2024-01-27T08:34:26;97005.06;;;19.64;40.39
66486;BME280;53303;47.476;8.084;2024-01-27T08:36:52;97015.81;;;19.71;40.35
66486;BME280;53303;47.476;8.084;2024-01-27T08:39:17;97025.81;;;19.68;40.29
66486;BME280;53303;47.476;8.084;2024-01-27T08:41:45;97020.00;;;19.66;40.47
66486;BME280;53303;47.476;8.084;2024-01-27T08:44:10;97030.13;;;19.69;40.47
66486;BME280;53303;47.476;8.084;2024-01-27T08:46:36;97011.69;;;19.66;40.44
66486;BME280;53303;47.476;8.084;2024-01-27T08:49:04;97016.72;;;19.68;40.32
66486;BME280;53303;47.476;8.084;2024-01-27T08:51:29;97021.81;;;19.69;40.57
66486;BME280;53303;47.476;8.084;2024-01-27T08:53:55;97027.19;;;19.73;40.53
66486;BME280;53303;47.476;8.084;2024-01-27T08:56:20;97013.66;;;19.66;40.47
66486;BME280;53303;47.476;8.084;2024-01-27T08:58:46;97017.69;;;19.74;40.54
66486;BME280;53303;47.476;8.084;2024-01-27T09:01:18;97006.59;;;19.65;40.59
66486;BME280;53303;47.476;8.084;2024-01-27T09:03:44;96990.78;;;19.56;40.67
66486;BME280;53303;47.476;8.084;2024-01-27T09:06:11;97014.16;;;19.73;40.42
66486;BME280;53303;47.476;8.084;2024-01-27T09:08:37;97009.81;;;19.72;40.50
66486;BME280;53303;47.476;8.084;2024-01-27T09:11:03;97009.50;;;19.70;40.84
66486;BME280;53303;47.476;8.084;2024-01-27T09:13:28;97017.69;;;19.74;40.67
66486;BME280;53303;47.476;8.084;2024-01-27T09:15:56;97012.28;;;19.70;40.95
66486;BME280;53303;47.476;8.084;2024-01-27T09:18:22;97015.19;;;19.76;40.94
66486;BME280;53303;47.476;8.084;2024-01-27T09:20:49;97009.50;;;19.70;40.77
66486;BME280;53303;47.476;8.084;2024-01-27T09:23:15;97013.31;;;19.73;40.91
66486;BME280;53303;47.476;8.084;2024-01-27T09:25:40;97007.50;;;19.71;40.94
66486;BME280;53303;47.476;8.084;2024-01-27T09:28:06;97006.75;;;19.70;40.90
66486;BME280;53303;47.476;8.084;2024-01-27T09:30:31;97018.44;;;19.74;40.75
66486;BME280;53303;47.476;8.084;2024-01-27T09:32:57;97019.19;;;19.75;41.11
66486;BME280;53303;47.476;8.084;2024-01-27T09:35:24;97016.25;;;19.78;41.06
66486;BME280;53303;47.476;8.084;2024-01-27T09:37:50;97015.03;;;19.80;41.23
66486;BME280;53303;47.476;8.084;2024-01-27T09:40:15;97002.91;;;19.77;40.85
66486;BME280;53303;47.476;8.084;2024-01-27T09:42:55;97010.56;;;19.82;40.93
66486;BME280;53303;47.476;8.084;2024-01-27T09:45:27;97005.03;;;19.82;41.18
66486;BME280;53303;47.476;8.084;2024-01-27T09:47:56;97002.13;;;19.76;41.35
66486;BME280;53303;47.476;8.084;2024-01-27T09:50:23;96997.94;;;19.81;40.82
66486;BME280;53303;47.476;8.084;2024-01-27T09:52:48;97005.03;;;19.82;40.79
66486;BME280;53303;47.476;8.084;2024-01-27T09:55:14;97006.44;;;19.77;40.82
66486;BME280;53303;47.476;8.084;2024-01-27T09:57:42;97008.56;;;19.83;40.61
66486;BME280;53303;47.476;8.084;2024-01-27T10:00:10;97005.63;;;19.86;40.86
66486;BME280;53303;47.476;8.084;2024-01-27T10:02:42;97001.78;;;19.84;40.71
66486;BME280;53303;47.476;8.084;2024-01-27T10:05:08;97008.41;;;19.86;40.91
66486;BME280;53303;47.476;8.084;2024-01-27T10:07:34;97013.66;;;19.84;40.92
66486;BME280;53303;47.476;8.084;2024-01-27T10:09:59;97017.47;;;19.87;40.94
66486;BME280;53303;47.476;8.084;2024-01-27T10:12:25;97019.03;;;19.88;41.04
66486;BME280;53303;47.476;8.084;2024-01-27T10:14:51;97010.41;;;19.86;41.10
66486;BME280;53303;47.476;8.084;2024-01-27T10:17:23;97009.16;;;19.87;41.01
66486;BME280;53303;47.476;8.084;2024-01-27T10:20:00;96996.84;;;19.88;40.92
66486;BME280;53303;47.476;8.084;2024-01-27T10:22:29;96999.16;;;19.89;41.06
66486;BME280;53303;47.476;8.084;2024-01-27T10:25:05;96989.00;;;19.86;41.25
66486;BME280;53303;47.476;8.084;2024-01-27T10:27:31;96983.63;;;19.83;41.21
66486;BME280;53303;47.476;8.084;2024-01-27T10:29:58;97001.16;;;19.89;41.25
66486;BME280;53303;47.476;8.084;2024-01-27T10:32:24;96997.16;;;19.90;41.24
66486;BME280;53303;47.476;8.084;2024-01-27T10:35:02;97001.16;;;19.89;41.25
66486;BME280;53303;47.476;8.084;2024-01-27T10:37:28;97000.22;;;19.92;41.30
66486;BME280;53303;47.476;8.084;2024-01-27T10:40:06;96993.91;;;19.91;41.50
66486;BME280;53303;47.476;8.084;2024-01-27T10:42:36;96989.59;;;19.90;41.46
66486;BME280;53303;47.476;8.084;2024-01-27T10:45:04;96988.25;;;19.86;41.45
66486;BME280;53303;47.476;8.084;2024-01-27T10:47:31;96982.22;;;19.87;41.26
66486;BME280;53303;47.476;8.084;2024-01-27T10:49:59;96987.91;;;19.93;41.53
66486;BME280;53303;47.476;8.084;2024-01-27T10:52:29;96978.53;;;19.90;41.66
66486;BME280;53303;47.476;8.084;2024-01-27T10:55:03;96980.25;;;19.88;41.54
66486;BME280;53303;47.476;8.084;2024-01-27T10:57:36;96985.44;;;19.95;41.51
66486;BME280;53303;47.476;8.084;2024-01-27T11:00:03;96968.53;;;19.93;41.45
66486;BME280;53303;47.476;8.084;2024-01-27T11:02:36;96970.78;;;19.94;41.75
66486;BME280;53303;47.476;8.084;2024-01-27T11:05:03;96959.13;;;19.90;41.77
66486;BME280;53303;47.476;8.084;2024-01-27T11:07:32;96959.13;;;19.90;41.82
66486;BME280;53303;47.476;8.084;2024-01-27T11:09:58;96957.44;;;19.93;41.80
66486;BME280;53303;47.476;8.084;2024-01-27T11:12:25;96967.56;;;19.96;41.63
66486;BME280;53303;47.476;8.084;2024-01-27T11:14:52;96960.03;;;19.96;41.86
66486;BME280;53303;47.476;8.084;2024-01-27T11:17:18;96953.13;;;19.92;41.56
66486;BME280;53303;47.476;8.084;2024-01-27T11:19:45;96962.81;;;19.96;41.89
66486;BME280;53303;47.476;8.084;2024-01-27T11:22:24;96960.97;;;19.93;42.13
66486;BME280;53303;47.476;8.084;2024-01-27T11:27:32;96960.78;;;19.97;42.04
66486;BME280;53303;47.476;8.084;2024-01-27T11:30:00;96947.41;;;19.95;42.06
66486;BME280;53303;47.476;8.084;2024-01-27T11:32:26;96946.66;;;19.95;42.01
66486;BME280;53303;47.476;8.084;2024-01-27T11:34:51;96935.09;;;19.96;42.24
66486;BME280;53303;47.476;8.084;2024-01-27T11:37:20;96938.91;;;19.99;42.21
66486;BME280;53303;47.476;8.084;2024-01-27T11:39:50;96934.13;;;20.00;42.14
66486;BME280;53303;47.476;8.084;2024-01-27T11:42:16;96926.19;;;19.92;42.23
66486;BME280;53303;47.476;8.084;2024-01-27T11:44:43;96930.63;;;19.99;41.95
66486;BME280;53303;47.476;8.084;2024-01-27T11:47:18;96939.84;;;19.96;42.28
66486;BME280;53303;47.476;8.084;2024-01-27T11:49:50;96926.78;;;19.96;42.09
66486;BME280;53303;47.476;8.084;2024-01-27T11:52:17;96932.44;;;20.02;42.14
66486;BME280;53303;47.476;8.084;2024-01-27T11:54:43;96932.44;;;20.02;42.12
66486;BME280;53303;47.476;8.084;2024-01-27T11:57:11;96906.03;;;19.92;42.21
66486;BME280;53303;47.476;8.084;2024-01-27T11:59:39;96919.81;;;20.01;42.38
66486;BME280;53303;47.476;8.084;2024-01-27T12:02:05;96910.00;;;20.00;42.20
66486;BME280;53303;47.476;8.084;2024-01-27T12:04:31;96920.72;;;20.07;42.41
66486;BME280;53303;47.476;8.084;2024-01-27T12:06:56;96919.94;;;20.07;42.32
66486;BME280;53303;47.476;8.084;2024-01-27T12:09:24;96923.78;;;20.09;42.36
66486;BME280;53303;47.476;8.084;2024-01-27T12:11:49;96917.31;;;20.12;42.41
66486;BME280;53303;47.476;8.084;2024-01-27T12:14:16;96910.22;;;20.11;42.21
66486;BME280;53303;47.476;8.084;2024-01-27T12:16:42;96905.91;;;20.10;41.99
66486;BME280;53303;47.476;8.084;2024-01-27T12:19:09;96904.22;;;20.13;42.32
66486;BME280;53303;47.476;8.084;2024-01-27T12:21:35;96907.09;;;20.19;42.39
66486;BME280;53303;47.476;8.084;2024-01-27T12:24:01;96904.03;;;20.16;42.51
66486;BME280;53303;47.476;8.084;2024-01-27T12:26:28;96902.59;;;20.21;42.26
66486;BME280;53303;47.476;8.084;2024-01-27T12:28:55;96903.84;;;20.20;42.13
66486;BME280;53303;47.476;8.084;2024-01-27T12:31:23;96905.97;;;20.25;42.13
66486;BME280;53303;47.476;8.084;2024-01-27T12:33:53;96898.72;;;20.28;42.22
66486;BME280;53303;47.476;8.084;2024-01-27T12:36:24;96890.84;;;20.26;42.27
66486;BME280;53303;47.476;8.084;2024-01-27T12:39:00;96888.38;;;20.28;42.37
66486;BME280;53303;47.476;8.084;2024-01-27T12:41:27;96881.59;;;20.29;42.52
66486;BME280;53303;47.476;8.084;2024-01-27T12:43:53;96887.16;;;20.29;42.43
66486;BME280;53303;47.476;8.084;2024-01-27T12:46:19;96893.09;;;20.37;42.39
66486;BME280;53303;47.476;8.084;2024-01-27T12:48:45;96882.78;;;20.38;42.43
66486;BME280;53303;47.476;8.084;2024-01-27T12:51:13;96878.94;;;20.35;42.43
66486;BME280;53303;47.476;8.084;2024-01-27T12:53:39;96896.75;;;20.43;42.38
66486;BME280;53303;47.476;8.084;2024-01-27T12:56:11;96887.19;;;20.44;42.63
66486;BME280;53303;47.476;8.084;2024-01-27T12:58:37;96877.63;;;20.45;42.41